createdAt,value
2018-02-09T00:00:26.659Z,94820.32
2018-02-09T00:02:52.706Z,94831.17
2018-02-09T00:05:18.752Z,94830.63
2018-02-09T00:07:44.877Z,94820.86
2018-02-09T00:10:10.953Z,94820.80
2018-02-09T00:12:37.005Z,94796.04
2018-02-09T00:15:03.058Z,94821.05
2018-02-09T00:17:29.109Z,94810.34
2018-02-09T00:19:55.148Z,94814.08
2018-02-09T00:22:21.233Z,94826.67
2018-02-09T00:24:47.297Z,94829.72
2018-02-09T00:27:13.357Z,94834.52
2018-02-09T00:29:39.408Z,94830.34
2018-02-09T00:32:05.565Z,94822.34
2018-02-09T00:34:31.604Z,94826.95
2018-02-09T00:36:57.733Z,94838.36
2018-02-09T00:39:23.749Z,94835.42
2018-02-09T00:41:49.848Z,94839.70
2018-02-09T00:44:15.913Z,94845.66
2018-02-09T00:46:41.954Z,94862.65
2018-02-09T00:49:08.050Z,94866.17
2018-02-09T00:51:34.139Z,94865.77
2018-02-09T00:54:00.181Z,94854.84
2018-02-09T00:56:26.261Z,94860.55
2018-02-09T00:58:52.339Z,94862.14
2018-02-09T01:01:18.455Z,94864.72
2018-02-09T01:03:44.500Z,94859.05
2018-02-09T01:06:10.565Z,94869.95
2018-02-09T01:08:36.649Z,94866.64
2018-02-09T01:11:02.688Z,94862.28
2018-02-09T01:13:28.758Z,94863.45
2018-02-09T01:15:54.876Z,94866.68
2018-02-09T01:18:21.014Z,94865.77
2018-02-09T01:20:47.086Z,94869.22
2018-02-09T01:23:13.140Z,94883.09
2018-02-09T01:25:39.208Z,94869.22
2018-02-09T01:28:05.268Z,94877.47
2018-02-09T01:30:31.362Z,94884.58
2018-02-09T01:32:57.463Z,94883.23
2018-02-09T01:35:23.527Z,94881.35
2018-02-09T01:37:49.636Z,94880.70
2018-02-09T01:40:15.717Z,94871.95
2018-02-09T01:42:41.752Z,94894.39
2018-02-09T01:45:07.836Z,94880.84
2018-02-09T01:47:33.924Z,94878.55
2018-02-09T01:50:00.000Z,94889.41
2018-02-09T01:52:26.109Z,94875.31
2018-02-09T01:54:52.200Z,94885.16
2018-02-09T01:57:18.429Z,94895.98
2018-02-09T01:59:44.476Z,94896.53
2018-02-09T02:02:10.520Z,94887.95
2018-02-09T02:04:36.567Z,94891.81
2018-02-09T02:07:02.678Z,94893.05
2018-02-09T02:09:28.734Z,94889.95
2018-02-09T02:11:54.772Z,94896.93
2018-02-09T02:14:20.900Z,94893.73
2018-02-09T02:16:46.987Z,94898.56
2018-02-09T02:19:13.068Z,94898.67
2018-02-09T02:21:39.152Z,94891.33
2018-02-09T02:24:05.180Z,94899.11
2018-02-09T02:26:31.225Z,94880.14
2018-02-09T02:28:57.273Z,94895.77
2018-02-09T02:31:23.319Z,94888.36
2018-02-09T02:33:49.384Z,94887.30
2018-02-09T02:36:15.488Z,94887.92
2018-02-09T02:38:41.573Z,94885.49
2018-02-09T02:41:07.672Z,94886.69
2018-02-09T02:43:33.756Z,94885.13
2018-02-09T02:45:59.798Z,94892.61
2018-02-09T02:48:25.850Z,94893.55
2018-02-09T02:50:51.888Z,94902.70
2018-02-09T02:53:17.934Z,94895.98
2018-02-09T02:55:44.005Z,94902.30
2018-02-09T02:58:10.067Z,94889.27
2018-02-09T03:00:36.121Z,94905.90
2018-02-09T03:03:02.233Z,94902.95
2018-02-09T03:05:28.350Z,94910.47
2018-02-09T03:07:54.402Z,94920.93
2018-02-09T03:10:20.668Z,94923.36
2018-02-09T03:12:46.710Z,94922.31
2018-02-09T03:15:12.749Z,94922.42
2018-02-09T03:17:38.821Z,94911.42
2018-02-09T03:20:04.940Z,94913.02
2018-02-09T03:22:31.068Z,94904.98
2018-02-09T03:24:57.126Z,94912.61
2018-02-09T03:27:23.237Z,94910.36
2018-02-09T03:29:49.316Z,94905.63
2018-02-09T03:32:15.419Z,94917.05
2018-02-09T03:34:41.471Z,94903.89
2018-02-09T03:37:07.587Z,94906.04
2018-02-09T03:39:33.768Z,94902.66
2018-02-09T03:41:59.896Z,94908.44
2018-02-09T03:44:25.932Z,94912.50
2018-02-09T03:46:52.018Z,94905.35
2018-02-09T03:49:18.126Z,94901.47
2018-02-09T03:51:44.238Z,94902.41
2018-02-09T03:54:10.334Z,94912.61
2018-02-09T03:56:36.405Z,94907.94
2018-02-09T03:59:02.444Z,94909.93
2018-02-09T04:01:28.511Z,94910.61
2018-02-09T04:03:54.594Z,94890.45
2018-02-09T04:06:20.748Z,94907.78
2018-02-09T04:08:46.836Z,94891.88
2018-02-09T04:11:12.906Z,94888.25
2018-02-09T04:13:39.001Z,94902.64
2018-02-09T04:16:05.046Z,94909.28
2018-02-09T04:18:31.265Z,94900.31
2018-02-09T04:20:57.371Z,94900.91
2018-02-09T04:23:23.415Z,94891.09
2018-02-09T04:25:49.452Z,94896.86
2018-02-09T04:28:15.585Z,94904.43
2018-02-09T04:30:41.642Z,94896.33
2018-02-09T04:33:07.681Z,94898.58
2018-02-09T04:35:33.734Z,94894.30
2018-02-09T04:37:59.788Z,94900.31
2018-02-09T04:40:25.837Z,94903.73
2018-02-09T04:42:51.912Z,94904.66
2018-02-09T04:45:17.996Z,94903.48
2018-02-09T04:47:44.081Z,94893.51
2018-02-09T04:50:10.150Z,94895.41
2018-02-09T04:52:36.266Z,94891.89
2018-02-09T04:55:02.376Z,94890.95
2018-02-09T04:57:28.424Z,94884.89
2018-02-09T04:59:54.512Z,94891.72
2018-02-09T05:02:20.567Z,94884.34
2018-02-09T05:04:46.648Z,94886.67
2018-02-09T05:07:12.765Z,94890.81
2018-02-09T05:09:38.808Z,94890.48
2018-02-09T05:12:04.893Z,94895.87
2018-02-09T05:14:30.936Z,94901.75
2018-02-09T05:16:57.030Z,94898.55
2018-02-09T05:19:23.087Z,94899.58
2018-02-09T05:21:49.145Z,94890.75
2018-02-09T05:24:15.307Z,94881.34
2018-02-09T05:26:41.362Z,94899.14
2018-02-09T05:29:07.440Z,94897.88
2018-02-09T05:31:33.568Z,94896.67
2018-02-09T05:33:59.612Z,94904.41
2018-02-09T05:36:25.658Z,94901.76
2018-02-09T05:38:51.756Z,94910.47
2018-02-09T05:41:17.879Z,94908.39
2018-02-09T05:43:44.012Z,94912.72
2018-02-09T05:46:10.057Z,94913.09
2018-02-09T05:48:36.125Z,94912.39
2018-02-09T05:51:02.196Z,94910.25
2018-02-09T05:53:28.301Z,94915.55
2018-02-09T05:55:54.386Z,94906.19
2018-02-09T05:58:20.438Z,94914.68
2018-02-09T06:00:46.544Z,94922.09
2018-02-09T06:03:12.556Z,94928.52
2018-02-09T06:05:38.596Z,94932.95
2018-02-09T06:08:04.637Z,94936.14
2018-02-09T06:10:30.688Z,94941.59
2018-02-09T06:12:56.747Z,94942.89
2018-02-09T06:15:22.867Z,94939.37
2018-02-09T06:17:48.948Z,94930.52
2018-02-09T06:20:15.116Z,94934.59
2018-02-09T06:22:41.144Z,94938.98
2018-02-09T06:25:07.233Z,94932.34
2018-02-09T06:27:33.303Z,94930.30
2018-02-09T06:29:59.346Z,94925.69
2018-02-09T06:32:25.421Z,94938.95
2018-02-09T06:34:51.616Z,94948.67
2018-02-09T06:37:17.671Z,94947.73
2018-02-09T06:39:43.755Z,94948.95
2018-02-09T06:42:09.831Z,94956.36
2018-02-09T06:44:36.009Z,94964.10
2018-02-09T06:47:02.040Z,94946.70
2018-02-09T06:49:28.095Z,94956.13
2018-02-09T06:51:54.145Z,94971.91
2018-02-09T06:54:20.356Z,94967.23
2018-02-09T06:56:46.521Z,94977.16
2018-02-09T06:59:12.621Z,94975.41
2018-02-09T07:01:38.673Z,94933.67
2018-02-09T07:04:04.720Z,94955.16
2018-02-09T07:06:30.860Z,94960.92
2018-02-09T07:08:57.279Z,94958.92
2018-02-09T07:11:23.428Z,94961.84
2018-02-09T07:13:49.528Z,94961.78
2018-02-09T07:16:15.628Z,94954.33
2018-02-09T07:18:41.909Z,94969.30
2018-02-09T07:21:08.029Z,94949.36
2018-02-09T07:23:34.160Z,94962.30
2018-02-09T07:26:00.284Z,94962.76
2018-02-09T07:28:26.401Z,94926.61
2018-02-09T07:30:52.499Z,94952.59
2018-02-09T07:33:18.595Z,94951.22
2018-02-09T07:35:44.660Z,94947.69
2018-02-09T07:38:10.836Z,94946.43
2018-02-09T07:40:39.270Z,94949.03
2018-02-09T07:43:05.392Z,94946.11
2018-02-09T07:45:31.470Z,94967.30
2018-02-09T07:47:57.592Z,94962.50
2018-02-09T07:50:23.650Z,94970.63
2018-02-09T07:52:49.748Z,94971.23
2018-02-09T07:55:15.793Z,94966.55
2018-02-09T07:57:41.897Z,94961.62
2018-02-09T08:00:07.993Z,94947.41
2018-02-09T08:02:34.072Z,94961.15
2018-02-09T08:05:00.232Z,94955.81
2018-02-09T08:07:27.279Z,94964.32
2018-02-09T08:09:53.350Z,94971.01
2018-02-09T08:12:19.481Z,94946.20
2018-02-09T08:14:45.580Z,94925.94
2018-02-09T08:17:11.682Z,94958.98
2018-02-09T08:19:37.766Z,94963.66
2018-02-09T08:22:03.817Z,94978.09
2018-02-09T08:24:29.880Z,94970.92
2018-02-09T08:26:55.985Z,94959.44
2018-02-09T08:29:22.020Z,94996.66
2018-02-09T08:31:48.074Z,94998.45
2018-02-09T08:34:15.240Z,94964.13
2018-02-09T08:36:41.260Z,95020.98
2018-02-09T08:39:07.314Z,95009.36
2018-02-09T08:41:33.384Z,95019.31
2018-02-09T08:43:59.483Z,94981.41
2018-02-09T08:46:25.579Z,95014.48
2018-02-09T08:48:51.650Z,94991.20
2018-02-09T08:51:17.712Z,95005.55
2018-02-09T08:53:43.773Z,95001.71
2018-02-09T08:56:09.872Z,95003.92
2018-02-09T08:58:36.064Z,95005.77
2018-02-09T09:01:02.144Z,94996.58
2018-02-09T09:05:41.556Z,95015.91
2018-02-09T09:12:38.429Z,95016.09
2018-02-09T09:15:04.490Z,95021.83
2018-02-09T09:17:30.675Z,95019.61
2018-02-09T09:19:57.757Z,94992.72
2018-02-09T09:22:23.796Z,95015.64
2018-02-09T09:29:50.846Z,94929.24
2018-02-09T09:32:17.090Z,94956.86
2018-02-09T09:34:43.288Z,95000.09
2018-02-09T09:37:09.361Z,95017.25
2018-02-09T09:41:28.880Z,94994.38
2018-02-09T09:43:55.103Z,94899.59
2018-02-09T09:46:21.242Z,94982.70
2018-02-09T09:48:47.328Z,94985.58
2018-02-09T09:51:13.478Z,94964.10
2018-02-09T09:53:39.588Z,94971.04
2018-02-09T09:56:05.773Z,94980.77
2018-02-09T09:58:31.905Z,94995.05
2018-02-09T10:00:58.089Z,94999.16
2018-02-09T10:03:24.236Z,94998.33
2018-02-09T10:05:50.684Z,95000.95
2018-02-09T10:08:17.001Z,94980.61
2018-02-09T10:10:43.330Z,94996.97
2018-02-09T10:13:09.994Z,94999.11
2018-02-09T10:15:37.186Z,94975.25
2018-02-09T10:18:10.676Z,94998.94
2018-02-09T10:20:37.754Z,94966.61
2018-02-09T10:23:04.020Z,94967.38
2018-02-09T10:25:30.310Z,94966.80
2018-02-09T10:27:56.565Z,94938.41
2018-02-09T10:30:22.777Z,94951.20
2018-02-09T10:32:48.823Z,94977.07
2018-02-09T10:35:14.863Z,94963.34
2018-02-09T10:37:40.946Z,94952.78
2018-02-09T10:40:07.208Z,94968.20
2018-02-09T10:42:33.347Z,94971.70
2018-02-09T10:44:59.418Z,94946.78
2018-02-09T10:47:25.491Z,94956.92
2018-02-09T10:49:51.573Z,94975.70
2018-02-09T10:52:17.597Z,94975.52
2018-02-09T10:54:43.702Z,94965.42
2018-02-09T10:57:09.950Z,94957.28
2018-02-09T10:59:36.049Z,94967.69
2018-02-09T11:02:02.227Z,94949.17
2018-02-09T11:04:28.306Z,94962.39
2018-02-09T11:06:54.412Z,94956.55
2018-02-09T11:09:20.545Z,94948.36
2018-02-09T11:11:46.627Z,94955.30
2018-02-09T11:14:12.765Z,94952.50
2018-02-09T11:16:38.899Z,94955.44
2018-02-09T11:19:05.088Z,94918.14
2018-02-09T11:21:31.172Z,94934.44
2018-02-09T11:23:57.244Z,94936.76
2018-02-09T11:26:23.295Z,94938.61
2018-02-09T11:28:49.404Z,94929.98
2018-02-09T11:31:15.484Z,94939.64
2018-02-09T11:33:41.898Z,94919.10
2018-02-09T11:36:08.011Z,94912.19
2018-02-09T11:38:34.415Z,94920.16
2018-02-09T11:41:01.201Z,94922.95
2018-02-09T11:54:58.647Z,94900.95
2018-02-09T12:05:58.227Z,94908.15
2018-02-09T12:08:24.396Z,94904.72
2018-02-09T12:10:51.069Z,94901.47
2018-02-09T12:13:17.404Z,94896.89
2018-02-09T12:15:44.119Z,94898.41
2018-02-09T12:18:11.175Z,94901.22
2018-02-09T12:20:38.048Z,94899.47
2018-02-09T12:32:11.822Z,94897.69
2018-02-09T12:34:38.704Z,94899.03
2018-02-09T12:37:05.055Z,94895.44
2018-02-09T14:21:04.742Z,94829.23
2018-02-09T14:23:40.904Z,94823.00
2018-02-09T14:26:17.653Z,94814.09
2018-02-09T14:28:43.689Z,94796.31
2018-02-09T15:04:48.788Z,94810.45
2018-02-09T15:07:14.788Z,94831.95
2018-02-09T15:09:40.849Z,94785.23
2018-02-09T15:12:06.859Z,94794.81
2018-02-09T15:14:32.907Z,94818.81
2018-02-09T16:03:01.388Z,94766.80
2018-02-09T16:13:13.527Z,94868.47
2018-02-09T16:15:39.542Z,94850.65
2018-02-09T17:50:45.168Z,94851.00
2018-02-09T17:54:56.289Z,94845.88
